createdAt,value
2023-02-11T00:01:30.523Z,2.38
2023-02-11T00:03:58.728Z,2.62
2023-02-11T00:06:28.073Z,2.48
2023-02-11T00:08:56.263Z,2.53
2023-02-11T00:11:26.407Z,2.50
2023-02-11T00:13:53.451Z,2.36
2023-02-11T00:16:21.058Z,2.51
2023-02-11T00:18:48.758Z,2.16
2023-02-11T00:21:21.888Z,2.53
2023-02-11T00:23:49.163Z,2.32
2023-02-11T00:26:27.649Z,2.42
2023-02-11T00:28:54.735Z,2.47
2023-02-11T00:31:25.302Z,2.60
2023-02-11T00:33:53.189Z,2.59
2023-02-11T00:36:25.662Z,2.54
2023-02-11T00:38:53.538Z,2.46
2023-02-11T00:41:21.736Z,2.45
2023-02-11T00:43:49.539Z,2.38
2023-02-11T00:46:19.212Z,2.35
2023-02-11T00:48:46.228Z,2.31
2023-02-11T00:51:13.344Z,2.05
2023-02-11T00:53:40.582Z,1.63
2023-02-11T00:56:08.057Z,1.96
2023-02-11T00:58:35.884Z,2.16
2023-02-11T01:01:04.792Z,2.19
2023-02-11T01:03:32.003Z,1.64
2023-02-11T01:05:59.358Z,1.83
2023-02-11T01:08:26.705Z,2.30
2023-02-11T01:10:58.956Z,2.33
2023-02-11T01:13:27.062Z,2.31
2023-02-11T01:15:54.978Z,2.27
2023-02-11T01:18:22.033Z,2.20
2023-02-11T01:20:51.713Z,2.14
2023-02-11T01:23:19.161Z,1.60
2023-02-11T01:25:46.995Z,1.34
2023-02-11T01:28:26.002Z,2.05
2023-02-11T01:30:53.945Z,2.02
2023-02-11T01:33:22.187Z,2.03
2023-02-11T01:35:50.268Z,2.05
2023-02-11T01:38:23.402Z,2.23
2023-02-11T01:41:00.621Z,2.32
2023-02-11T01:43:37.998Z,2.46
2023-02-11T01:46:23.321Z,2.18
2023-02-11T01:49:04.858Z,2.39
2023-02-11T01:52:00.574Z,2.33
2023-02-11T01:54:51.266Z,2.35
2023-02-11T01:57:22.004Z,2.31
2023-02-11T01:59:55.366Z,2.33
2023-02-11T02:02:30.178Z,2.26
2023-02-11T02:05:08.788Z,2.47
2023-02-11T02:07:52.401Z,2.57
2023-02-11T02:10:22.981Z,1.82
2023-02-11T02:12:49.995Z,2.51
2023-02-11T02:15:25.715Z,2.53
2023-02-11T02:18:18.792Z,2.52
2023-02-11T02:21:10.023Z,2.41
2023-02-11T02:24:00.516Z,2.47
2023-02-11T02:26:50.208Z,2.57
2023-02-11T02:29:31.292Z,2.54
2023-02-11T02:32:13.278Z,2.44
2023-02-11T02:35:11.691Z,2.56
2023-02-11T02:38:10.671Z,2.58
2023-02-11T02:41:03.231Z,2.72
2023-02-11T02:43:31.217Z,2.46
2023-02-11T02:46:11.259Z,2.65
2023-02-11T02:48:38.422Z,2.78
2023-02-11T02:51:32.866Z,2.82
2023-02-11T02:54:05.616Z,2.77
2023-02-11T02:57:03.373Z,2.34
2023-02-11T03:00:00.677Z,2.59
2023-02-11T03:02:41.263Z,2.58
2023-02-11T03:05:38.734Z,2.54
2023-02-11T03:08:45.854Z,2.51
2023-02-11T03:11:17.100Z,2.51
2023-02-11T03:13:46.384Z,2.02
2023-02-11T03:16:38.945Z,2.49
2023-02-11T03:19:16.197Z,2.42
2023-02-11T03:21:45.131Z,2.43
2023-02-11T03:24:25.879Z,1.94
2023-02-11T03:26:58.184Z,2.59
2023-02-11T03:29:39.212Z,2.67
2023-02-11T03:32:18.005Z,2.19
2023-02-11T03:34:57.275Z,2.91
2023-02-11T03:37:31.611Z,2.78
2023-02-11T03:40:11.848Z,2.88
2023-02-11T03:42:45.073Z,2.82
2023-02-11T03:45:16.834Z,2.57
2023-02-11T03:47:55.563Z,2.71
2023-02-11T03:50:24.037Z,2.67
2023-02-11T03:52:51.767Z,2.12
2023-02-11T03:55:21.079Z,2.59
2023-02-11T03:57:48.661Z,2.88
2023-02-11T04:00:15.836Z,2.85
2023-02-11T04:02:43.596Z,2.62
2023-02-11T04:05:14.182Z,3.03
2023-02-11T04:07:41.207Z,3.05
2023-02-11T04:10:08.553Z,2.77
2023-02-11T04:12:35.555Z,2.72
2023-02-11T04:15:02.668Z,3.04
2023-02-11T04:17:29.675Z,3.17
2023-02-11T04:19:56.695Z,3.23
2023-02-11T04:22:23.747Z,3.22
2023-02-11T04:24:50.741Z,3.30
2023-02-11T04:27:17.826Z,3.20
2023-02-11T04:29:44.869Z,3.38
2023-02-11T04:32:12.399Z,3.32
2023-02-11T04:34:39.571Z,3.42
2023-02-11T04:37:07.008Z,3.40
2023-02-11T04:39:34.732Z,3.47
2023-02-11T04:42:01.705Z,2.95
2023-02-11T04:44:28.900Z,3.42
2023-02-11T04:46:55.978Z,3.26
2023-02-11T04:49:23.011Z,3.03
2023-02-11T04:51:50.234Z,2.73
2023-02-11T04:54:19.116Z,3.54
2023-02-11T04:56:46.130Z,3.33
2023-02-11T04:59:13.569Z,3.60
2023-02-11T05:01:40.884Z,3.71
2023-02-11T05:04:07.980Z,3.53
2023-02-11T05:06:35.100Z,3.66
2023-02-11T05:09:02.477Z,3.70
2023-02-11T05:11:29.513Z,3.64
2023-02-11T05:13:56.531Z,3.67
2023-02-11T05:16:23.762Z,3.67
2023-02-11T05:18:52.529Z,3.68
2023-02-11T05:21:20.003Z,3.78
2023-02-11T05:23:47.715Z,3.67
2023-02-11T05:26:14.765Z,3.61
2023-02-11T05:28:42.542Z,3.54
2023-02-11T05:31:10.681Z,3.71
2023-02-11T05:33:38.015Z,3.59
2023-02-11T05:36:08.372Z,3.82
2023-02-11T05:38:36.318Z,3.74
2023-02-11T05:41:04.180Z,3.57
2023-02-11T05:43:32.089Z,3.90
2023-02-11T05:45:59.193Z,3.66
2023-02-11T05:48:26.245Z,3.24
2023-02-11T05:50:53.262Z,3.72
2023-02-11T05:53:20.325Z,3.71
2023-02-11T05:55:47.373Z,3.64
2023-02-11T05:58:14.366Z,3.23
2023-02-11T06:00:41.483Z,3.17
2023-02-11T06:03:08.598Z,3.64
2023-02-11T06:05:35.655Z,3.41
2023-02-11T06:08:02.953Z,3.76
2023-02-11T06:10:30.224Z,3.90
2023-02-11T06:12:57.182Z,3.89
2023-02-11T06:15:24.270Z,3.24
2023-02-11T06:17:51.535Z,3.73
2023-02-11T06:20:19.186Z,3.71
2023-02-11T06:22:46.627Z,3.78
2023-02-11T06:25:14.898Z,3.47
2023-02-11T06:27:41.909Z,3.05
2023-02-11T06:30:09.776Z,3.72
2023-02-11T06:32:44.596Z,3.63
2023-02-11T06:35:13.653Z,3.73
2023-02-11T06:37:42.197Z,3.24
2023-02-11T06:40:11.155Z,3.72
2023-02-11T06:42:39.111Z,3.22
2023-02-11T06:45:09.498Z,3.76
2023-02-11T06:47:37.494Z,3.47
2023-02-11T06:50:06.024Z,3.78
2023-02-11T06:52:33.884Z,3.74
2023-02-11T06:55:00.937Z,3.74
2023-02-11T06:57:28.036Z,3.82
2023-02-11T06:59:55.578Z,3.84
2023-02-11T07:02:22.571Z,3.89
2023-02-11T07:04:49.628Z,3.83
2023-02-11T07:07:16.654Z,3.81
2023-02-11T07:09:44.014Z,3.91
2023-02-11T07:12:13.429Z,3.60
2023-02-11T07:14:40.672Z,3.32
2023-02-11T07:17:07.667Z,3.46
2023-02-11T07:19:34.634Z,3.77
2023-02-11T07:22:02.317Z,3.68
2023-02-11T07:24:29.322Z,3.70
2023-02-11T07:26:56.337Z,3.79
2023-02-11T07:29:23.553Z,3.17
2023-02-11T07:31:50.611Z,3.75
2023-02-11T07:34:17.843Z,3.74
2023-02-11T07:36:45.088Z,3.71
2023-02-11T07:39:12.392Z,3.70
2023-02-11T07:41:39.444Z,3.68
2023-02-11T07:44:06.830Z,3.66
2023-02-11T07:46:35.580Z,3.65
2023-02-11T07:49:02.755Z,3.70
2023-02-11T07:51:31.076Z,3.63
2023-02-11T07:53:59.735Z,3.58
2023-02-11T07:56:28.506Z,3.54
2023-02-11T07:58:56.845Z,3.58
2023-02-11T08:01:27.095Z,3.94
2023-02-11T08:03:58.080Z,3.72
2023-02-11T08:06:27.408Z,3.78
2023-02-11T08:08:54.975Z,3.72
2023-02-11T08:11:25.470Z,3.70
2023-02-11T08:13:53.528Z,3.87
2023-02-11T08:16:29.765Z,3.83
2023-02-11T08:18:58.868Z,3.38
2023-02-11T08:21:26.380Z,3.26
2023-02-11T08:23:55.095Z,3.41
2023-02-11T08:26:25.461Z,3.83
2023-02-11T08:28:53.983Z,3.80
2023-02-11T08:31:22.347Z,3.91
2023-02-11T08:33:50.339Z,3.51
2023-02-11T08:36:32.111Z,3.77
2023-02-11T08:39:17.573Z,3.73
2023-02-11T08:41:48.650Z,3.83
2023-02-11T08:44:21.378Z,3.87
2023-02-11T08:46:50.701Z,3.48
2023-02-11T08:49:17.765Z,3.94
2023-02-11T08:51:45.243Z,4.02
2023-02-11T08:54:13.305Z,3.93
2023-02-11T08:56:40.611Z,3.94
2023-02-11T08:59:09.182Z,4.06
2023-02-11T09:01:36.430Z,4.10
2023-02-11T09:04:03.552Z,4.13
2023-02-11T09:06:30.600Z,3.44
2023-02-11T09:08:58.219Z,4.01
2023-02-11T09:11:29.258Z,4.02
2023-02-11T09:13:56.363Z,4.11
2023-02-11T09:16:26.210Z,3.99
2023-02-11T09:18:55.701Z,3.93
2023-02-11T09:21:22.821Z,4.03
2023-02-11T09:23:49.891Z,4.05
2023-02-11T09:26:23.340Z,4.17
2023-02-11T09:28:51.430Z,3.95
2023-02-11T09:31:21.423Z,4.19
2023-02-11T09:33:51.204Z,4.25
2023-02-11T09:36:24.672Z,4.21
2023-02-11T09:38:52.710Z,3.77
2023-02-11T09:41:43.238Z,4.25
2023-02-11T09:44:20.008Z,4.39
2023-02-11T09:46:54.910Z,4.44
2023-02-11T09:49:31.272Z,4.45
2023-02-11T09:52:24.415Z,4.61
2023-02-11T09:55:00.431Z,4.34
2023-02-11T09:57:33.657Z,4.28
2023-02-11T10:00:02.134Z,4.55
2023-02-11T10:03:06.984Z,4.52
2023-02-11T10:06:01.482Z,4.49
2023-02-11T10:08:33.121Z,4.36
2023-02-11T10:11:31.207Z,4.49
2023-02-11T10:14:19.590Z,4.53
2023-02-11T10:17:09.954Z,4.66
2023-02-11T10:19:55.300Z,4.52
2023-02-11T10:22:30.826Z,4.70
2023-02-11T10:25:00.316Z,4.18
2023-02-11T10:27:36.041Z,4.72
2023-02-11T10:30:19.144Z,4.62
2023-02-11T10:33:16.843Z,4.69
2023-02-11T10:35:43.905Z,4.68
2023-02-11T10:38:11.465Z,4.72
2023-02-11T10:40:38.597Z,4.72
2023-02-11T10:43:11.917Z,4.84
2023-02-11T10:45:45.909Z,4.46
2023-02-11T10:48:40.850Z,4.90
2023-02-11T10:51:21.200Z,4.64
2023-02-11T10:54:04.948Z,4.50
2023-02-11T10:56:37.909Z,5.00
2023-02-11T10:59:14.271Z,4.93
2023-02-11T11:01:49.060Z,5.05
2023-02-11T11:04:34.120Z,5.19
2023-02-11T11:07:20.461Z,5.23
2023-02-11T11:10:06.749Z,5.19
2023-02-11T11:12:46.473Z,4.98
2023-02-11T11:15:18.715Z,4.98
2023-02-11T11:17:46.331Z,4.74
2023-02-11T11:20:16.401Z,5.03
2023-02-11T11:22:44.047Z,4.55
2023-02-11T11:25:26.734Z,5.01
2023-02-11T11:27:57.126Z,4.77
2023-02-11T11:30:31.612Z,4.91
2023-02-11T11:32:59.416Z,5.06
2023-02-11T11:35:32.936Z,5.12
2023-02-11T11:38:03.327Z,4.79
2023-02-11T11:40:33.193Z,4.52
2023-02-11T11:43:12.445Z,5.04
2023-02-11T11:45:51.959Z,5.11
2023-02-11T11:48:34.208Z,4.95
2023-02-11T11:51:09.529Z,4.56
2023-02-11T11:53:54.752Z,5.00
2023-02-11T11:56:24.338Z,5.21
2023-02-11T11:58:51.574Z,4.44
2023-02-11T12:02:01.957Z,5.10
2023-02-11T12:04:47.423Z,5.12
2023-02-11T12:07:34.515Z,5.12
2023-02-11T12:10:40.027Z,5.05
2023-02-11T12:13:40.205Z,4.59
2023-02-11T12:16:13.858Z,4.95
2023-02-11T12:19:02.994Z,4.98
2023-02-11T12:21:55.952Z,5.26
2023-02-11T12:24:38.244Z,5.30
2023-02-11T12:27:10.420Z,5.30
2023-02-11T12:30:10.433Z,5.36
2023-02-11T12:33:04.759Z,5.19
2023-02-11T12:35:46.799Z,5.20
2023-02-11T12:38:25.677Z,5.16
2023-02-11T12:41:10.273Z,5.34
2023-02-11T12:43:39.651Z,5.43
2023-02-11T12:46:25.764Z,5.26
2023-02-11T12:49:19.323Z,5.29
2023-02-11T12:52:08.424Z,5.31
2023-02-11T12:54:43.612Z,5.41
2023-02-11T12:57:26.482Z,5.18
2023-02-11T13:00:04.158Z,5.19
2023-02-11T13:02:58.080Z,5.26
2023-02-11T13:05:40.431Z,5.18
2023-02-11T13:08:16.190Z,5.14
2023-02-11T13:10:47.814Z,5.10
2023-02-11T13:13:50.410Z,5.11
2023-02-11T13:16:58.277Z,5.18
2023-02-11T13:19:38.856Z,5.19
2023-02-11T13:22:31.991Z,4.84
2023-02-11T13:25:11.040Z,5.26
2023-02-11T13:27:43.656Z,5.17
2023-02-11T13:30:33.121Z,5.20
2023-02-11T13:33:03.230Z,5.15
2023-02-11T13:35:39.932Z,5.17
2023-02-11T13:38:25.066Z,5.18
2023-02-11T13:41:07.186Z,5.10
2023-02-11T13:43:36.277Z,5.00
2023-02-11T13:46:10.144Z,5.28
2023-02-11T13:48:45.545Z,5.35
2023-02-11T13:51:15.877Z,5.30
2023-02-11T13:53:53.229Z,5.06
2023-02-11T13:56:34.420Z,5.41
2023-02-11T13:59:05.366Z,5.30
2023-02-11T14:02:12.247Z,5.22
2023-02-11T14:05:22.688Z,5.28
2023-02-11T14:08:32.442Z,5.26
2023-02-11T14:11:08.333Z,5.38
2023-02-11T14:13:47.390Z,5.36
2023-02-11T14:16:37.059Z,5.42
2023-02-11T14:19:06.034Z,5.55
2023-02-11T14:21:37.471Z,5.04
2023-02-11T14:24:04.912Z,5.49
2023-02-11T14:27:07.798Z,5.41
2023-02-11T14:29:44.089Z,5.40
2023-02-11T14:32:26.388Z,5.53
2023-02-11T14:34:59.204Z,5.38
2023-02-11T14:38:05.107Z,5.38
2023-02-11T14:40:47.606Z,5.38
2023-02-11T14:43:27.810Z,5.54
2023-02-11T14:45:58.552Z,5.34
2023-02-11T14:48:36.744Z,5.14
2023-02-11T14:51:13.809Z,5.31
2023-02-11T14:53:46.366Z,5.35
2023-02-11T14:56:17.780Z,5.48
2023-02-11T14:58:49.559Z,5.48
2023-02-11T15:01:37.888Z,5.54
2023-02-11T15:04:21.171Z,5.41
2023-02-11T15:06:52.024Z,5.60
2023-02-11T15:09:48.041Z,5.56
2023-02-11T15:12:27.746Z,5.50
2023-02-11T15:14:58.414Z,5.45
2023-02-11T15:17:31.819Z,4.96
2023-02-11T15:20:01.713Z,5.45
2023-02-11T15:22:36.880Z,5.51
2023-02-11T15:25:06.763Z,5.37
2023-02-11T15:27:41.864Z,5.31
2023-02-11T15:30:21.136Z,5.37
2023-02-11T15:32:58.000Z,5.34
2023-02-11T15:35:34.914Z,5.39
2023-02-11T15:38:02.508Z,5.35
2023-02-11T15:40:32.992Z,5.41
2023-02-11T15:43:03.208Z,5.36
2023-02-11T15:45:33.754Z,5.41
2023-02-11T15:48:14.570Z,5.42
2023-02-11T15:50:42.809Z,4.99
2023-02-11T15:53:27.601Z,5.39
2023-02-11T15:56:00.772Z,5.00
2023-02-11T15:58:27.898Z,5.42
2023-02-11T16:00:59.563Z,5.18
2023-02-11T16:03:32.430Z,5.12
2023-02-11T16:06:25.597Z,5.36
2023-02-11T16:09:16.687Z,5.50
2023-02-11T16:11:47.141Z,5.36
2023-02-11T16:14:33.964Z,5.35
2023-02-11T16:17:07.129Z,5.32
2023-02-11T16:19:35.517Z,5.30
2023-02-11T16:22:09.225Z,5.30
2023-02-11T16:24:39.113Z,4.92
2023-02-11T16:27:22.993Z,5.48
2023-02-11T16:29:51.134Z,5.44
2023-02-11T16:32:23.673Z,4.71
2023-02-11T16:34:51.263Z,5.51
2023-02-11T16:37:18.179Z,5.29
2023-02-11T16:39:45.991Z,5.37
2023-02-11T16:42:13.327Z,5.37
2023-02-11T16:44:40.395Z,4.79
2023-02-11T16:47:17.194Z,5.32
2023-02-11T16:49:44.238Z,5.47
2023-02-11T16:52:15.886Z,5.60
2023-02-11T16:54:42.944Z,5.44
2023-02-11T16:57:18.689Z,5.41
2023-02-11T16:59:46.095Z,4.92
2023-02-11T17:02:22.878Z,5.40
2023-02-11T17:04:53.697Z,5.41
2023-02-11T17:07:21.349Z,5.25
2023-02-11T17:09:48.352Z,5.31
2023-02-11T17:12:15.379Z,5.41
2023-02-11T17:14:42.349Z,5.37
2023-02-11T17:17:10.490Z,5.37
2023-02-11T17:19:38.321Z,5.37
2023-02-11T17:22:05.830Z,5.48
2023-02-11T17:24:33.127Z,5.46
2023-02-11T17:27:00.129Z,5.46
2023-02-11T17:29:27.160Z,5.37
2023-02-11T17:31:54.718Z,5.25
2023-02-11T17:34:22.328Z,4.98
2023-02-11T17:36:49.949Z,5.27
2023-02-11T17:39:19.202Z,4.60
2023-02-11T17:41:46.347Z,4.97
2023-02-11T17:44:14.000Z,5.38
2023-02-11T17:46:41.015Z,5.28
2023-02-11T17:49:08.197Z,5.39
2023-02-11T17:51:37.771Z,5.35
2023-02-11T17:54:14.279Z,5.10
2023-02-11T17:56:42.041Z,5.07
2023-02-11T17:59:10.508Z,5.37
2023-02-11T18:01:38.623Z,5.58
2023-02-11T18:04:06.889Z,5.57
2023-02-11T18:06:34.152Z,5.36
2023-02-11T18:09:04.094Z,5.31
2023-02-11T18:11:33.042Z,5.25
2023-02-11T18:14:01.873Z,5.61
2023-02-11T18:16:29.922Z,5.58
2023-02-11T18:18:58.453Z,4.99
2023-02-11T18:21:25.887Z,5.64
2023-02-11T18:23:53.172Z,5.08
2023-02-11T18:26:21.222Z,5.56
2023-02-11T18:28:48.260Z,5.59
2023-02-11T18:31:15.556Z,4.99
2023-02-11T18:33:43.380Z,5.62
2023-02-11T18:36:13.806Z,5.58
2023-02-11T18:38:44.020Z,4.97
2023-02-11T18:41:11.832Z,5.34
2023-02-11T18:43:39.925Z,5.56
2023-02-11T18:46:09.695Z,5.04
2023-02-11T18:48:38.154Z,5.43
2023-02-11T18:51:14.630Z,5.35
2023-02-11T18:53:43.003Z,5.74
2023-02-11T18:56:21.669Z,5.64
2023-02-11T18:58:49.310Z,5.53
2023-02-11T19:01:24.306Z,5.07
2023-02-11T19:03:52.511Z,5.64
2023-02-11T19:06:27.880Z,5.65
2023-02-11T19:08:59.531Z,5.08
2023-02-11T19:11:47.625Z,5.70
2023-02-11T19:14:23.239Z,5.32
2023-02-11T19:16:52.785Z,5.68
2023-02-11T19:19:24.066Z,5.31
2023-02-11T19:21:51.351Z,5.51
2023-02-11T19:24:20.255Z,5.56
2023-02-11T19:26:48.726Z,5.45
2023-02-11T19:29:16.525Z,5.78
2023-02-11T19:31:44.522Z,5.05
2023-02-11T19:34:14.005Z,5.27
2023-02-11T19:36:41.477Z,5.80
2023-02-11T19:39:09.155Z,5.87
2023-02-11T19:41:36.362Z,5.85
2023-02-11T19:44:05.403Z,5.82
2023-02-11T19:46:36.289Z,5.75
2023-02-11T19:49:04.722Z,5.37
2023-02-11T19:51:33.700Z,5.21
2023-02-11T19:54:00.810Z,5.82
2023-02-11T19:56:30.985Z,5.48
2023-02-11T19:58:58.296Z,5.76
2023-02-11T20:01:25.951Z,5.37
2023-02-11T20:03:55.288Z,5.68
2023-02-11T20:06:25.051Z,5.75
2023-02-11T20:09:07.234Z,5.73
2023-02-11T20:11:35.202Z,5.71
2023-02-11T20:14:02.843Z,5.73
2023-02-11T20:16:46.978Z,5.70
2023-02-11T20:19:17.827Z,5.37
2023-02-11T20:21:48.036Z,5.69
2023-02-11T20:24:19.334Z,5.73
2023-02-11T20:26:48.304Z,5.34
2023-02-11T20:29:17.061Z,5.76
2023-02-11T20:31:44.406Z,5.72
2023-02-11T20:34:12.657Z,5.70
2023-02-11T20:36:40.508Z,5.26
2023-02-11T20:39:07.971Z,5.60
2023-02-11T20:41:39.584Z,5.75
2023-02-11T20:44:09.902Z,5.71
2023-02-11T20:46:39.976Z,5.76
2023-02-11T20:49:08.559Z,5.78
2023-02-11T20:51:37.179Z,5.83
2023-02-11T20:54:06.284Z,5.92
2023-02-11T20:56:36.682Z,5.84
2023-02-11T20:59:05.013Z,5.88
2023-02-11T21:01:38.109Z,5.98
2023-02-11T21:04:08.175Z,5.85
2023-02-11T21:06:40.814Z,5.87
2023-02-11T21:09:09.042Z,5.85
2023-02-11T21:11:36.098Z,5.82
2023-02-11T21:14:03.560Z,5.87
2023-02-11T21:16:31.556Z,5.89
2023-02-11T21:19:00.393Z,5.75
2023-02-11T21:21:27.736Z,5.90
2023-02-11T21:23:56.050Z,5.70
2023-02-11T21:26:23.110Z,5.86
2023-02-11T21:28:51.840Z,5.48
2023-02-11T21:31:25.971Z,5.92
2023-02-11T21:33:57.119Z,5.99
2023-02-11T21:36:24.159Z,5.87
2023-02-11T21:38:51.727Z,5.81
2023-02-11T21:41:21.787Z,5.38
2023-02-11T21:43:49.746Z,5.88
2023-02-11T21:46:18.443Z,5.93
2023-02-11T21:48:45.603Z,5.88
2023-02-11T21:51:15.420Z,5.86
2023-02-11T21:53:42.441Z,5.83
2023-02-11T21:56:15.220Z,5.89
2023-02-11T21:58:43.117Z,5.92
2023-02-11T22:01:22.965Z,4.95
2023-02-11T22:03:50.351Z,5.97
2023-02-11T22:06:21.384Z,5.88
2023-02-11T22:08:54.742Z,5.80
2023-02-11T22:11:22.156Z,5.51
2023-02-11T22:13:54.015Z,5.93
2023-02-11T22:16:22.264Z,5.57
2023-02-11T22:18:49.540Z,5.91
2023-02-11T22:21:19.120Z,5.52
2023-02-11T22:23:46.888Z,5.90
2023-02-11T22:26:17.350Z,5.88
2023-02-11T22:28:45.048Z,5.95
2023-02-11T22:31:18.208Z,5.59
2023-02-11T22:33:46.023Z,5.57
2023-02-11T22:36:20.754Z,5.98
2023-02-11T22:38:48.802Z,5.95
2023-02-11T22:41:16.492Z,6.00
2023-02-11T22:43:44.532Z,6.01
2023-02-11T22:46:14.474Z,6.00
2023-02-11T22:48:41.986Z,5.51
2023-02-11T22:51:12.075Z,6.14
2023-02-11T22:53:39.890Z,6.09
2023-02-11T22:56:14.813Z,6.05
2023-02-11T22:58:43.191Z,6.05
2023-02-11T23:01:11.195Z,5.41
2023-02-11T23:03:39.271Z,6.04
2023-02-11T23:06:06.661Z,6.14
2023-02-11T23:08:34.402Z,5.86
2023-02-11T23:11:10.898Z,6.12
2023-02-11T23:13:40.225Z,6.11
2023-02-11T23:16:10.740Z,5.90
2023-02-11T23:18:39.779Z,6.11
2023-02-11T23:21:27.879Z,5.73
2023-02-11T23:24:21.662Z,6.04
2023-02-11T23:26:48.829Z,6.02
2023-02-11T23:29:15.819Z,5.94
2023-02-11T23:31:46.365Z,5.99
2023-02-11T23:34:25.408Z,6.17
2023-02-11T23:36:53.004Z,5.64
2023-02-11T23:39:20.431Z,6.07
2023-02-11T23:41:47.428Z,5.86
2023-02-11T23:44:14.721Z,6.06
2023-02-11T23:46:41.747Z,5.88
2023-02-11T23:49:08.894Z,6.11
2023-02-11T23:51:35.915Z,5.52
2023-02-11T23:54:03.182Z,6.05
2023-02-11T23:56:30.486Z,5.98
2023-02-11T23:58:58.659Z,6.00
